Time;durP1;ratioP1;P1;durP2;ratioP2;P2;SDS_P1;SDS_P2;PMS_P1;PMS_P2;Temp;Humidity;BMP_temperature;BMP_pressure;BME280_temperature;BME280_humidity;BME280_pressure;Samples;Min_cycle;Max_cycle;Signal;HPM_P1;HPM_P2
2023/01/12 00:02:05;;;;;;;;;;;;;;;5.28;76.27;95339.06;5155225;27;1044;-54
2023/01/12 00:04:31;;;;;;;;;;;;;;;5.28;76.17;95339.91;5155592;27;1493;-54
2023/01/12 00:06:58;;;;;;;;;;;;;;;5.35;75.46;95339.41;5155565;27;1992;-54
2023/01/12 00:09:24;;;;;;;;;;;;;;;5.34;75.34;95343.03;5155744;27;1059;-54
2023/01/12 00:11:50;;;;;;;;;;;;;;;5.34;75.45;95340.38;5155767;27;984;-54
2023/01/12 00:14:16;;;;;;;;;;;;;;;5.39;74.69;95336.38;5155558;27;1099;-54
2023/01/12 00:16:43;;;;;;;;;;;;;;;5.44;75.04;95334.22;5155354;27;1087;-54
2023/01/12 00:19:10;;;;;;;;;;;;;;;5.37;74.41;95340.97;5155330;27;1046;-54
2023/01/12 00:21:47;;;;;;;;;;;;;;;5.39;73.39;95340.84;5155281;27;1110;-54
2023/01/12 00:24:15;;;;;;;;;;;;;;;5.41;74.70;95349.53;5154558;27;1433;-54
2023/01/12 00:26:41;;;;;;;;;;;;;;;5.46;75.13;95342.03;5155497;27;1996;-54
2023/01/12 00:29:07;;;;;;;;;;;;;;;5.52;74.51;95330.06;5155263;27;1059;-54
2023/01/12 00:31:33;;;;;;;;;;;;;;;5.44;74.85;95341.31;5155364;27;1546;-54
2023/01/12 00:33:59;;;;;;;;;;;;;;;5.41;75.31;95357.47;5136975;27;1027;-54
2023/01/12 00:36:25;;;;;;;;;;;;;;;5.46;75.05;95350.84;5155376;27;975;-54
2023/01/12 00:38:51;;;;;;;;;;;;;;;5.49;75.02;95349.72;5155386;27;1047;-54
2023/01/12 00:46:47;;;;;;;;;;;;;;;5.51;74.98;95361.06;5154931;27;2004;-54
2023/01/12 00:49:13;;;;;;;;;;;;;;;5.48;75.75;95353.34;5154986;27;995;-53
2023/01/12 00:51:39;;;;;;;;;;;;;;;5.43;75.56;95347.59;5136965;27;1040;-53
2023/01/12 00:54:07;;;;;;;;;;;;;;;5.45;75.84;95358.91;5155237;27;957;-53
2023/01/12 00:56:33;;;;;;;;;;;;;;;5.50;74.89;95366.47;5155039;27;1147;-53
2023/01/12 00:58:59;;;;;;;;;;;;;;;5.51;74.84;95363.72;5155086;27;1053;-53
2023/01/12 01:01:26;;;;;;;;;;;;;;;5.50;75.38;95358.53;5154962;27;965;-53
2023/01/12 01:03:52;;;;;;;;;;;;;;;5.47;74.54;95363.13;5155051;27;1026;-53
2023/01/12 01:06:19;;;;;;;;;;;;;;;5.54;74.76;95360.81;5154865;27;1968;-53
2023/01/12 01:08:46;;;;;;;;;;;;;;;5.51;74.67;95362.88;5154909;27;1050;-53
2023/01/12 01:11:13;;;;;;;;;;;;;;;5.50;75.32;95363.81;5154771;27;1152;-52
2023/01/12 01:13:40;;;;;;;;;;;;;;;5.50;74.84;95355.88;5138020;27;1090;-53
2023/01/12 01:16:06;;;;;;;;;;;;;;;5.48;75.92;95363.94;5158962;27;1060;-53
2023/01/12 01:18:33;;;;;;;;;;;;;;;5.46;74.60;95364.09;5158948;27;1094;-53
2023/01/12 01:21:00;;;;;;;;;;;;;;;5.50;75.44;95366.47;5158857;27;1035;-52
2023/01/12 01:23:26;;;;;;;;;;;;;;;5.51;76.12;95360.22;5157677;27;1261;-53
2023/01/12 01:25:53;;;;;;;;;;;;;;;5.57;75.05;95357.91;5158847;27;1992;-53
2023/01/12 01:28:19;;;;;;;;;;;;;;;5.61;74.57;95361.16;5158719;27;1126;-53
2023/01/12 01:30:46;;;;;;;;;;;;;;;5.53;75.66;95364.44;5158676;27;1269;-53
2023/01/12 01:33:12;;;;;;;;;;;;;;;5.51;75.21;95361.06;5158836;27;967;-53
2023/01/12 01:35:39;;;;;;;;;;;;;;;5.52;75.59;95368.06;5158813;27;1047;-53
2023/01/12 01:38:05;;;;;;;;;;;;;;;5.44;75.66;95365.16;5158652;27;1047;-52
2023/01/12 01:40:31;;;;;;;;;;;;;;;5.46;74.98;95368.53;5158587;27;1296;-53
2023/01/12 01:42:58;;;;;;;;;;;;;;;5.46;75.37;95363.22;5158490;27;964;-53
2023/01/12 01:45:24;;;;;;;;;;;;;;;5.51;75.46;95366.38;5158704;27;960;-53
2023/01/12 01:47:56;;;;;;;;;;;;;;;5.45;75.41;95359.75;5158286;27;1992;-53
2023/01/12 01:50:25;;;;;;;;;;;;;;;5.48;74.86;95361.28;5158317;27;1044;-53
2023/01/12 01:52:54;;;;;;;;;;;;;;;5.50;75.14;95367.31;5158310;27;1039;-53
2023/01/12 01:55:47;;;;;;;;;;;;;;;5.46;75.52;95364.09;5158194;27;1082;-53
2023/01/12 01:58:15;;;;;;;;;;;;;;;5.40;76.03;95363.75;5147265;27;1463;-53
2023/01/12 02:00:42;;;;;;;;;;;;;;;5.40;76.12;95353.97;5158344;27;1020;-53
2023/01/12 02:03:09;;;;;;;;;;;;;;;5.34;76.38;95361.59;5158091;27;1091;-53
2023/01/12 02:05:36;;;;;;;;;;;;;;;5.32;76.77;95369.66;5158078;27;1054;-53
2023/01/12 02:08:25;;;;;;;;;;;;;;;5.33;76.17;95374.00;5158002;27;1965;-52
2023/01/12 02:10:52;;;;;;;;;;;;;;;5.32;77.66;95372.31;5144592;27;1711;-53
2023/01/12 02:16:24;;;;;;;;;;;;;;;5.16;78.87;95372.72;5157733;27;1036;-53
2023/01/12 02:18:56;;;;;;;;;;;;;;;5.19;78.95;95372.44;5158120;27;971;-53
2023/01/12 02:21:37;;;;;;;;;;;;;;;5.13;79.53;95362.34;5157912;27;979;-52
2023/01/12 02:24:06;;;;;;;;;;;;;;;5.06;79.67;95359.31;5156423;27;1509;-53
2023/01/12 02:26:36;;;;;;;;;;;;;;;5.08;79.53;95361.84;5157680;27;1992;-53
2023/01/12 02:29:25;;;;;;;;;;;;;;;4.98;80.30;95367.06;5157504;27;1035;-53
2023/01/12 02:31:57;;;;;;;;;;;;;;;4.94;80.88;95357.66;5144082;27;1682;-53
2023/01/12 02:34:33;;;;;;;;;;;;;;;4.83;80.83;95353.22;5157506;27;976;-53
2023/01/12 02:37:09;;;;;;;;;;;;;;;4.84;80.77;95346.97;5157433;27;1114;-53
2023/01/12 02:39:41;;;;;;;;;;;;;;;4.84;80.52;95354.91;5157399;27;1024;-53
2023/01/12 02:45:00;;;;;;;;;;;;;;;4.92;80.92;95356.13;5157385;27;1010;-53
2023/01/12 02:47:32;;;;;;;;;;;;;;;4.91;80.68;95359.72;5156887;27;1972;-53
2023/01/12 02:50:00;;;;;;;;;;;;;;;4.83;80.57;95358.50;5157208;27;1067;-53
2023/01/12 02:52:29;;;;;;;;;;;;;;;4.88;81.01;95366.09;5157268;27;1035;-53
2023/01/12 02:54:57;;;;;;;;;;;;;;;4.86;81.61;95360.09;5157095;27;1051;-53
2023/01/12 02:57:24;;;;;;;;;;;;;;;4.85;81.57;95364.53;5156986;27;1031;-53
2023/01/12 02:59:51;;;;;;;;;;;;;;;4.85;81.48;95363.69;5157146;27;972;-53
2023/01/12 03:02:19;;;;;;;;;;;;;;;4.85;81.67;95351.28;5156938;27;952;-53
2023/01/12 03:04:45;;;;;;;;;;;;;;;4.87;81.60;95353.81;5156892;27;1047;-51
2023/01/12 03:07:11;;;;;;;;;;;;;;;4.88;82.00;95347.56;5156873;27;1901;-52
2023/01/12 03:09:42;;;;;;;;;;;;;;;4.91;81.53;95344.66;5156702;27;1102;-52
2023/01/12 03:12:11;;;;;;;;;;;;;;;4.89;81.52;95342.16;5156748;27;1074;-53
2023/01/12 03:14:39;;;;;;;;;;;;;;;4.73;82.21;95341.66;5156760;27;1047;-52
2023/01/12 03:17:10;;;;;;;;;;;;;;;4.57;82.73;95343.81;5156651;27;1103;-52
2023/01/12 03:19:38;;;;;;;;;;;;;;;4.58;82.84;95341.06;5156911;27;1337;-52
2023/01/12 03:22:07;;;;;;;;;;;;;;;4.67;82.89;95336.84;5156776;27;964;-52
2023/01/12 03:24:39;;;;;;;;;;;;;;;4.72;82.26;95333.81;5155538;27;1444;-53
2023/01/12 03:27:12;;;;;;;;;;;;;;;4.75;82.83;95337.09;5156504;27;1992;-52
2023/01/12 03:29:41;;;;;;;;;;;;;;;4.76;82.95;95338.78;5156522;27;985;-51
2023/01/12 03:32:07;;;;;;;;;;;;;;;4.75;83.72;95345.03;5156529;27;1031;-52
2023/01/12 03:34:33;;;;;;;;;;;;;;;4.77;83.31;95345.75;5156627;27;1251;-52
2023/01/12 03:37:06;;;;;;;;;;;;;;;4.88;81.75;95340.44;5155478;27;1114;-52
2023/01/12 03:39:38;;;;;;;;;;;;;;;5.01;80.17;95347.44;5156429;27;1019;-52
2023/01/12 03:42:22;;;;;;;;;;;;;;;5.07;79.29;95349.59;5156143;27;983;-52
2023/01/12 03:45:00;;;;;;;;;;;;;;;5.16;78.40;95346.22;5156372;27;985;-52
2023/01/12 03:47:28;;;;;;;;;;;;;;;5.19;79.20;95345.09;5155858;27;1915;-52
2023/01/12 03:49:57;;;;;;;;;;;;;;;5.15;79.46;95341.03;5156115;27;1057;-52
2023/01/12 03:52:24;;;;;;;;;;;;;;;5.14;78.66;95337.53;5155920;27;1200;-52
2023/01/12 03:54:52;;;;;;;;;;;;;;;5.12;78.89;95331.50;5155838;27;1031;-52
2023/01/12 03:57:19;;;;;;;;;;;;;;;5.04;79.87;95342.72;5156057;27;1017;-52
2023/01/12 03:59:45;;;;;;;;;;;;;;;5.09;79.91;95337.06;5156072;27;1195;-52
2023/01/12 04:02:11;;;;;;;;;;;;;;;5.13;78.83;95343.78;5137263;27;1031;-52
2023/01/12 04:04:37;;;;;;;;;;;;;;;5.13;79.07;95341.13;5155909;27;1070;-52
2023/01/12 04:07:04;;;;;;;;;;;;;;;5.10;78.09;95344.03;5155626;27;1992;-52
2023/01/12 04:09:30;;;;;;;;;;;;;;;5.11;77.54;95343.06;5155549;27;995;-52
2023/01/12 04:12:11;;;;;;;;;;;;;;;5.05;77.86;95343.56;5155865;27;1026;-52
2023/01/12 04:14:37;;;;;;;;;;;;;;;5.14;77.34;95339.31;5155817;27;1032;-52
2023/01/12 04:17:04;;;;;;;;;;;;;;;5.15;77.51;95349.81;5155681;27;998;-52
2023/01/12 04:19:30;;;;;;;;;;;;;;;5.11;77.69;95345.72;5155413;27;1028;-52
2023/01/12 04:24:40;;;;;;;;;;;;;;;5.13;77.16;95346.44;5154623;27;1204;-52
2023/01/12 04:27:07;;;;;;;;;;;;;;;5.16;77.28;95346.22;5155410;27;1994;-52
2023/01/12 04:29:33;;;;;;;;;;;;;;;5.12;77.41;95349.22;5155428;27;976;-52
2023/01/12 04:31:59;;;;;;;;;;;;;;;5.17;76.99;95337.28;5136989;27;957;-52
2023/01/12 04:34:25;;;;;;;;;;;;;;;5.14;77.36;95345.50;5155202;27;971;-52
2023/01/12 04:36:51;;;;;;;;;;;;;;;5.21;76.96;95344.00;5155463;27;1090;-52
2023/01/12 04:39:17;;;;;;;;;;;;;;;5.30;76.40;95344.25;5155337;27;944;-52
2023/01/12 04:41:43;;;;;;;;;;;;;;;5.12;77.98;95343.91;5137149;27;1214;-52
2023/01/12 04:44:09;;;;;;;;;;;;;;;5.10;78.14;95346.69;5155293;27;1030;-52
2023/01/12 04:46:35;;;;;;;;;;;;;;;5.21;77.44;95344.00;5154985;27;1909;-52
2023/01/12 04:49:01;;;;;;;;;;;;;;;5.26;76.54;95349.78;5155045;27;1074;-52
2023/01/12 04:51:27;;;;;;;;;;;;;;;5.23;76.85;95367.75;5155103;27;983;-52
2023/01/12 04:53:53;;;;;;;;;;;;;;;5.26;76.53;95365.69;5155342;27;1043;-52
2023/01/12 04:56:19;;;;;;;;;;;;;;;5.17;77.21;95362.94;5154946;27;1065;-52
2023/01/12 04:58:46;;;;;;;;;;;;;;;5.25;76.74;95369.34;5155118;27;1051;-52
2023/01/12 05:01:13;;;;;;;;;;;;;;;5.29;76.54;95375.19;5155145;27;1007;-52
2023/01/12 05:03:40;;;;;;;;;;;;;;;5.28;76.13;95377.00;5155041;27;1047;-52
2023/01/12 05:06:06;;;;;;;;;;;;;;;5.27;76.87;95372.69;5149547;27;1988;-52
2023/01/12 05:11:17;;;;;;;;;;;;;;;5.17;77.49;95374.38;5134371;27;1049;-52
2023/01/12 05:13:43;;;;;;;;;;;;;;;5.16;78.01;95367.41;5134221;27;1086;-52
2023/01/12 05:16:11;;;;;;;;;;;;;;;5.22;76.97;95372.22;5134205;27;1053;-52
2023/01/12 05:18:37;;;;;;;;;;;;;;;5.27;77.69;95375.34;5134018;27;1090;-52
2023/01/12 05:21:03;;;;;;;;;;;;;;;5.23;78.07;95375.69;5134309;27;977;-52
2023/01/12 05:23:29;;;;;;;;;;;;;;;5.12;77.78;95376.56;5134731;27;1507;-52
2023/01/12 05:25:59;;;;;;;;;;;;;;;5.13;78.78;95391.50;5133966;28;1918;-52
2023/01/12 05:28:26;;;;;;;;;;;;;;;5.12;77.53;95389.81;5134094;28;1000;-52
2023/01/12 05:30:52;;;;;;;;;;;;;;;5.03;78.01;95393.22;5133961;27;1055;-52
2023/01/12 05:33:19;;;;;;;;;;;;;;;5.04;78.84;95397.53;5133857;27;1496;-52
2023/01/12 05:35:45;;;;;;;;;;;;;;;4.93;80.31;95398.38;5134152;27;1022;-52
2023/01/12 05:38:11;;;;;;;;;;;;;;;4.87;79.43;95389.09;5134144;27;995;-52
2023/01/12 05:40:37;;;;;;;;;;;;;;;4.91;79.67;95395.00;5134008;28;995;-52
2023/01/12 05:45:48;;;;;;;;;;;;;;;5.03;78.58;95401.16;5134208;28;1051;-51
2023/01/12 05:48:14;;;;;;;;;;;;;;;4.98;79.17;95403.31;5133706;27;1931;-50
2023/01/12 05:50:40;;;;;;;;;;;;;;;4.99;78.89;95408.50;5133959;28;1055;-50
2023/01/12 05:53:07;;;;;;;;;;;;;;;5.08;79.02;95406.91;5133960;28;1014;-50
2023/01/12 05:55:33;;;;;;;;;;;;;;;5.27;77.94;95411.59;5133812;28;1117;-51
2023/01/12 05:57:59;;;;;;;;;;;;;;;5.28;77.45;95414.13;5115540;28;1028;-52
2023/01/12 06:00:25;;;;;;;;;;;;;;;5.27;77.82;95416.91;5117862;27;1061;-51
2023/01/12 06:02:51;;;;;;;;;;;;;;;5.35;76.99;95416.28;5137436;27;1048;-51
2023/01/12 06:05:17;;;;;;;;;;;;;;;5.41;77.38;95423.78;5137607;27;1026;-51
2023/01/12 06:07:43;;;;;;;;;;;;;;;5.37;77.49;95417.88;5137375;27;1902;-52
2023/01/12 06:10:10;;;;;;;;;;;;;;;5.35;77.11;95413.63;5119201;27;1044;-51
2023/01/12 06:15:20;;;;;;;;;;;;;;;5.28;77.58;95419.44;5137440;27;1002;-51
2023/01/12 06:17:46;;;;;;;;;;;;;;;5.30;77.51;95426.44;5137304;27;1184;-51
2023/01/12 06:20:15;;;;;;;;;;;;;;;5.33;76.84;95420.88;5137182;27;973;-51
2023/01/12 06:22:42;;;;;;;;;;;;;;;5.19;78.84;95428.13;5136972;27;1040;-51
2023/01/12 06:25:09;;;;;;;;;;;;;;;5.00;79.47;95436.66;5136082;27;1449;-51
2023/01/12 06:27:37;;;;;;;;;;;;;;;4.97;81.16;95436.06;5137082;27;1906;-52
2023/01/12 06:30:07;;;;;;;;;;;;;;;4.88;80.60;95437.66;5137188;27;1063;-51
2023/01/12 06:32:33;;;;;;;;;;;;;;;4.87;81.47;95430.66;5136957;27;982;-52
2023/01/12 06:34:59;;;;;;;;;;;;;;;4.85;80.84;95441.34;5136979;27;976;-51
2023/01/12 06:37:25;;;;;;;;;;;;;;;4.87;81.12;95438.59;5136642;27;1094;-52
2023/01/12 06:39:51;;;;;;;;;;;;;;;4.94;81.29;95434.50;5136826;27;1046;-51
2023/01/12 06:42:30;;;;;;;;;;;;;;;5.05;81.19;95438.97;5136617;27;1013;-51
2023/01/12 06:45:02;;;;;;;;;;;;;;;5.02;81.61;95440.03;5136692;27;1070;-51
2023/01/12 06:47:30;;;;;;;;;;;;;;;5.09;81.33;95445.72;5136295;27;1926;-52
2023/01/12 06:49:56;;;;;;;;;;;;;;;5.16;80.09;95446.94;5136564;27;995;-51
2023/01/12 06:52:24;;;;;;;;;;;;;;;5.18;80.52;95452.97;5136465;27;1020;-52
2023/01/12 06:54:50;;;;;;;;;;;;;;;5.18;80.39;95449.44;5136427;27;1948;-52
2023/01/12 06:57:17;;;;;;;;;;;;;;;5.12;80.50;95448.13;5136350;27;1040;-51
2023/01/12 06:59:43;;;;;;;;;;;;;;;5.04;81.54;95455.84;5136435;27;1311;-52
2023/01/12 07:02:12;;;;;;;;;;;;;;;5.09;82.09;95464.28;5136448;27;1141;-52
2023/01/12 07:04:39;;;;;;;;;;;;;;;5.02;83.05;95465.72;5136166;27;1024;-51
2023/01/12 07:07:06;;;;;;;;;;;;;;;5.12;82.35;95457.88;5136094;27;1988;-52
2023/01/12 07:09:32;;;;;;;;;;;;;;;5.29;82.56;95462.69;5136066;27;1048;-49
2023/01/12 07:11:58;;;;;;;;;;;;;;;5.44;81.48;95456.19;5134953;27;1015;-51
2023/01/12 07:14:25;;;;;;;;;;;;;;;5.60;80.40;95454.97;5136155;27;1023;-51
2023/01/12 07:16:51;;;;;;;;;;;;;;;5.68;79.40;95456.03;5136021;27;1075;-52
2023/01/12 07:19:17;;;;;;;;;;;;;;;5.67;79.45;95459.66;5135910;27;1040;-51
2023/01/12 07:21:43;;;;;;;;;;;;;;;5.68;79.22;95455.19;5135826;27;1033;-52
2023/01/12 07:24:09;;;;;;;;;;;;;;;5.77;78.89;95458.91;5134871;27;1340;-51
2023/01/12 07:26:35;;;;;;;;;;;;;;;5.82;78.15;95457.59;5135842;27;1897;-51
2023/01/12 07:29:02;;;;;;;;;;;;;;;5.94;77.17;95458.38;5135695;27;1015;-52
2023/01/12 07:31:28;;;;;;;;;;;;;;;6.00;77.25;95454.41;5135789;27;980;-51
2023/01/12 07:33:54;;;;;;;;;;;;;;;6.11;76.89;95454.38;5135723;27;1055;-51
2023/01/12 07:36:20;;;;;;;;;;;;;;;6.07;75.45;95455.59;5135480;27;1043;-51
2023/01/12 07:38:46;;;;;;;;;;;;;;;6.12;76.48;95449.91;5135620;27;1016;-51
2023/01/12 07:43:57;;;;;;;;;;;;;;;6.12;76.19;95452.56;5135466;27;1051;-51
2023/01/12 07:50:23;;;;;;;;;;;;;;;6.17;76.23;95459.19;5134865;27;1218;-51
2023/01/12 07:52:49;;;;;;;;;;;;;;;6.27;76.52;95467.22;5135282;27;1114;-51
2023/01/12 07:55:17;;;;;;;;;;;;;;;6.30;74.94;95471.44;5135147;27;1098;-51
2023/01/12 07:57:57;;;;;;;;;;;;;;;6.29;75.15;95473.25;5135114;27;1161;-50
2023/01/12 08:00:23;;;;;;;;;;;;;;;6.31;75.51;95475.78;5135202;27;1025;-51
2023/01/12 08:02:50;;;;;;;;;;;;;;;6.40;75.47;95470.53;5135242;27;1020;-51
2023/01/12 08:05:16;;;;;;;;;;;;;;;6.38;74.35;95467.19;5135089;27;1015;-51
2023/01/12 08:07:43;;;;;;;;;;;;;;;6.38;75.78;95476.97;5134797;27;1906;-51
2023/01/12 08:10:10;;;;;;;;;;;;;;;6.50;75.38;95478.59;5135199;27;1035;-52
2023/01/12 08:12:36;;;;;;;;;;;;;;;6.52;75.46;95475.81;5134859;27;1678;-52
2023/01/12 08:15:03;;;;;;;;;;;;;;;6.53;74.74;95483.66;5134939;27;1059;-52
2023/01/12 08:17:32;;;;;;;;;;;;;;;6.64;74.42;95482.75;5134878;27;1031;-51
2023/01/12 08:20:00;;;;;;;;;;;;;;;6.84;73.98;95475.75;5134876;27;1200;-52
2023/01/12 08:22:29;;;;;;;;;;;;;;;6.80;74.38;95471.69;5134308;27;961;-52
2023/01/12 08:24:58;;;;;;;;;;;;;;;6.80;74.50;95471.69;5134027;27;1465;-52
2023/01/12 08:27:26;;;;;;;;;;;;;;;6.93;74.22;95471.47;5134581;27;1996;-52
2023/01/12 08:29:54;;;;;;;;;;;;;;;7.01;73.14;95475.16;5134892;27;1230;-52
2023/01/12 08:32:21;;;;;;;;;;;;;;;7.13;72.65;95472.41;5134663;27;1012;-52
2023/01/12 08:34:49;;;;;;;;;;;;;;;7.21;72.61;95461.97;5134647;27;1099;-52
2023/01/12 08:37:16;;;;;;;;;;;;;;;7.16;72.64;95461.53;5134842;27;1403;-52
2023/01/12 08:39:42;;;;;;;;;;;;;;;7.20;72.00;95458.44;5134439;27;1051;-52
2023/01/12 08:42:08;;;;;;;;;;;;;;;7.18;72.01;95459.56;5134706;27;965;-52
2023/01/12 08:44:35;;;;;;;;;;;;;;;7.09;71.46;95460.38;5134538;27;999;-52
2023/01/12 08:47:01;;;;;;;;;;;;;;;7.13;72.92;95457.31;5134512;28;1989;-52
2023/01/12 08:49:28;;;;;;;;;;;;;;;7.12;72.03;95460.94;5134171;27;1165;-52
2023/01/12 08:51:55;;;;;;;;;;;;;;;7.15;71.40;95460.69;5134383;28;1125;-52
2023/01/12 08:54:21;;;;;;;;;;;;;;;7.09;71.97;95453.22;5134262;28;1023;-51
2023/01/12 08:56:48;;;;;;;;;;;;;;;7.09;73.06;95453.22;5134558;28;1060;-52
2023/01/12 08:59:15;;;;;;;;;;;;;;;7.14;71.76;95451.00;5134497;28;1051;-52
2023/01/12 09:01:41;;;;;;;;;;;;;;;7.38;71.92;95452.50;5134319;28;1018;-51
2023/01/12 09:04:07;;;;;;;;;;;;;;;7.44;70.92;95457.31;5134350;28;1114;-52
2023/01/12 09:06:34;;;;;;;;;;;;;;;7.60;70.47;95454.13;5134368;28;1997;-52
2023/01/12 09:09:02;;;;;;;;;;;;;;;7.48;70.47;95450.75;5134400;28;1006;-52
2023/01/12 09:11:29;;;;;;;;;;;;;;;7.60;71.03;95452.31;5134313;28;1037;-52
2023/01/12 09:13:57;;;;;;;;;;;;;;;7.80;70.21;95447.06;5134285;28;1003;-51
2023/01/12 09:16:24;;;;;;;;;;;;;;;7.69;68.87;95447.16;5134037;28;1118;-53
2023/01/12 09:18:50;;;;;;;;;;;;;;;7.59;70.56;95450.63;5115926;28;960;-49
2023/01/12 09:21:18;;;;;;;;;;;;;;;7.73;70.66;95443.25;5134377;28;1057;-52
2023/01/12 09:23:44;;;;;;;;;;;;;;;7.73;69.20;95443.25;5133148;28;1186;-52
2023/01/12 09:26:11;;;;;;;;;;;;;;;7.84;70.85;95445.78;5134166;28;1978;-52
2023/01/12 09:28:37;;;;;;;;;;;;;;;7.88;69.73;95441.88;5133993;28;1280;-51
2023/01/12 09:31:05;;;;;;;;;;;;;;;7.83;69.69;95441.44;5115965;28;1010;-51
2023/01/12 09:33:31;;;;;;;;;;;;;;;7.74;68.14;95440.44;5133939;27;1067;-51
2023/01/12 09:36:01;;;;;;;;;;;;;;;7.72;69.30;95436.22;5137537;27;1035;-51
2023/01/12 09:38:27;;;;;;;;;;;;;;;7.54;70.41;95433.38;5138101;27;1060;-51
2023/01/12 09:40:53;;;;;;;;;;;;;;;7.57;70.51;95436.63;5137982;27;1040;-51
2023/01/12 09:48:48;;;;;;;;;;;;;;;8.00;68.67;95435.44;5137586;27;1237;-52
2023/01/12 09:51:26;;;;;;;;;;;;;;;8.13;68.31;95437.00;5137847;27;968;-52
2023/01/12 09:53:53;;;;;;;;;;;;;;;8.10;66.43;95429.28;5137762;27;964;-51
2023/01/12 09:56:34;;;;;;;;;;;;;;;8.14;66.46;95431.53;5137527;27;1036;-51
2023/01/12 09:59:33;;;;;;;;;;;;;;;8.47;66.99;95428.63;5137564;27;1023;-51
2023/01/12 10:01:59;;;;;;;;;;;;;;;8.32;65.58;95426.34;5081380;27;1839;-52
2023/01/12 10:04:25;;;;;;;;;;;;;;;8.43;65.78;95436.06;5137418;27;972;-51
2023/01/12 10:06:51;;;;;;;;;;;;;;;8.38;66.66;95425.81;5137331;27;1906;-51
2023/01/12 10:09:18;;;;;;;;;;;;;;;8.44;65.68;95432.41;5137302;27;1110;-51
2023/01/12 10:11:50;;;;;;;;;;;;;;;8.37;65.76;95429.44;5137458;27;1039;-51
2023/01/12 10:14:22;;;;;;;;;;;;;;;8.30;66.17;95420.31;5137451;27;1026;-52
2023/01/12 10:16:57;;;;;;;;;;;;;;;8.15;66.23;95421.72;5119206;27;1016;-51
2023/01/12 10:19:23;;;;;;;;;;;;;;;8.05;64.63;95419.06;5137112;27;1259;-51
2023/01/12 10:21:50;;;;;;;;;;;;;;;7.94;65.82;95419.19;5137126;27;1015;-51
2023/01/12 10:24:20;;;;;;;;;;;;;;;8.07;66.04;95421.59;5136308;27;1249;-51
2023/01/12 10:26:49;;;;;;;;;;;;;;;8.26;67.34;95424.25;5137291;27;1909;-51
2023/01/12 10:29:15;;;;;;;;;;;;;;;8.41;65.33;95414.00;5137082;27;970;-51
2023/01/12 10:31:41;;;;;;;;;;;;;;;8.49;66.20;95416.84;5136893;27;941;-49
2023/01/12 10:34:09;;;;;;;;;;;;;;;8.70;65.44;95411.31;5136905;27;1028;-51
2023/01/12 10:36:40;;;;;;;;;;;;;;;8.37;65.87;95413.44;5136697;27;1078;-52
2023/01/12 10:39:23;;;;;;;;;;;;;;;8.07;67.48;95411.75;5118819;27;1041;-49
2023/01/12 10:42:07;;;;;;;;;;;;;;;8.00;64.93;95419.44;5136855;27;971;-51
2023/01/12 10:44:33;;;;;;;;;;;;;;;8.06;65.22;95404.75;5136533;27;1110;-51
2023/01/12 10:47:09;;;;;;;;;;;;;;;8.13;68.24;95407.72;5136567;27;1989;-51
2023/01/12 10:49:35;;;;;;;;;;;;;;;8.12;66.56;95403.34;5136456;27;1090;-51
2023/01/12 10:52:05;;;;;;;;;;;;;;;7.95;66.82;95400.41;5136626;27;1036;-51
2023/01/12 10:54:33;;;;;;;;;;;;;;;7.93;68.74;95399.72;5136450;27;1072;-51
2023/01/12 10:57:02;;;;;;;;;;;;;;;8.01;66.33;95410.50;5136315;27;1051;-52
2023/01/12 10:59:30;;;;;;;;;;;;;;;7.95;69.27;95404.91;5136291;27;1044;-51
2023/01/12 11:02:05;;;;;;;;;;;;;;;7.84;67.81;95403.19;5136529;27;1047;-52
2023/01/12 11:04:42;;;;;;;;;;;;;;;7.84;67.71;95402.38;5136350;27;1066;-51
2023/01/12 11:07:10;;;;;;;;;;;;;;;7.84;68.08;95408.53;5136166;27;1981;-51
2023/01/12 11:09:37;;;;;;;;;;;;;;;7.93;66.56;95404.16;5136058;27;1095;-51
2023/01/12 11:12:05;;;;;;;;;;;;;;;7.86;67.68;95400.41;5136092;27;1031;-51
2023/01/12 11:14:32;;;;;;;;;;;;;;;7.85;66.39;95399.53;5136213;27;953;-51
2023/01/12 11:17:14;;;;;;;;;;;;;;;7.81;67.04;95392.81;5135980;27;1032;-51
2023/01/12 11:19:42;;;;;;;;;;;;;;;7.98;67.54;95396.63;5135882;27;1036;-52
2023/01/12 11:22:16;;;;;;;;;;;;;;;8.03;67.98;95410.38;5135840;27;1107;-52
2023/01/12 11:24:47;;;;;;;;;;;;;;;7.88;67.89;95399.28;5135021;27;1497;-51
2023/01/12 11:27:21;;;;;;;;;;;;;;;7.94;67.71;95397.88;5135661;27;1973;-51
2023/01/12 11:29:56;;;;;;;;;;;;;;;7.96;67.81;95393.25;5135897;27;995;-52
2023/01/12 11:32:28;;;;;;;;;;;;;;;8.08;66.39;95396.63;5135659;27;1035;-52
2023/01/12 11:34:59;;;;;;;;;;;;;;;7.99;66.53;95393.81;5135664;27;979;-50
2023/01/12 11:37:25;;;;;;;;;;;;;;;8.16;67.14;95392.28;5135749;27;958;-52
2023/01/12 11:40:16;;;;;;;;;;;;;;;8.07;64.87;95381.63;5135563;27;1094;-51
2023/01/12 11:45:45;;;;;;;;;;;;;;;7.98;67.36;95384.13;5135372;27;1055;-51
2023/01/12 11:48:34;;;;;;;;;;;;;;;7.94;67.30;95382.75;5135607;27;1980;-51
2023/01/12 11:51:01;;;;;;;;;;;;;;;8.05;66.98;95387.09;5135434;27;1087;-52
2023/01/12 11:53:27;;;;;;;;;;;;;;;7.98;66.94;95377.97;5135276;27;1060;-52
2023/01/12 11:55:59;;;;;;;;;;;;;;;7.99;67.48;95379.69;5135083;27;1110;-52
2023/01/12 11:58:37;;;;;;;;;;;;;;;8.03;65.88;95373.09;5134427;27;1876;-52
2023/01/12 12:01:21;;;;;;;;;;;;;;;7.88;66.17;95372.66;5135148;27;1043;-52
2023/01/12 12:03:54;;;;;;;;;;;;;;;7.77;66.77;95373.63;5135199;27;1023;-52
2023/01/12 12:06:31;;;;;;;;;;;;;;;7.82;66.50;95371.38;5135129;27;2008;-52
2023/01/12 12:08:57;;;;;;;;;;;;;;;7.74;67.35;95362.41;5134988;27;1043;-52
2023/01/12 12:11:23;;;;;;;;;;;;;;;7.69;66.44;95362.00;5134845;27;1019;-52
2023/01/12 12:14:07;;;;;;;;;;;;;;;7.73;66.96;95366.91;5135216;27;945;-51
2023/01/12 12:16:36;;;;;;;;;;;;;;;7.84;67.09;95368.59;5134698;27;1043;-51
2023/01/12 12:19:04;;;;;;;;;;;;;;;7.85;67.34;95369.44;5134755;27;1110;-52
2023/01/12 12:21:36;;;;;;;;;;;;;;;7.92;67.40;95371.38;5134797;27;968;-52
2023/01/12 12:24:02;;;;;;;;;;;;;;;8.07;66.52;95371.00;5133901;27;1131;-52
2023/01/12 12:26:34;;;;;;;;;;;;;;;7.91;67.20;95371.53;5134610;27;1984;-52
2023/01/12 12:29:18;;;;;;;;;;;;;;;7.87;66.38;95367.47;5134590;27;933;-52
2023/01/12 12:32:11;;;;;;;;;;;;;;;7.68;66.18;95358.47;5134636;27;1839;-52
2023/01/12 12:34:49;;;;;;;;;;;;;;;7.73;67.34;95360.75;5129931;27;1690;-52
2023/01/12 12:37:23;;;;;;;;;;;;;;;7.67;68.82;95363.97;5134575;27;1039;-52
2023/01/12 12:40:08;;;;;;;;;;;;;;;7.77;67.34;95356.81;5134799;27;985;-52
2023/01/12 12:45:38;;;;;;;;;;;;;;;7.88;67.30;95364.66;5061114;28;1269;-53
2023/01/12 12:48:20;;;;;;;;;;;;;;;7.86;66.59;95363.97;5134335;27;1987;-52
2023/01/12 12:50:57;;;;;;;;;;;;;;;7.92;66.26;95368.72;5134360;28;1039;-52
2023/01/12 12:53:32;;;;;;;;;;;;;;;7.86;64.73;95363.97;5134368;28;964;-52
2023/01/12 12:56:00;;;;;;;;;;;;;;;7.78;65.02;95363.84;5134323;28;995;-52
2023/01/12 12:58:28;;;;;;;;;;;;;;;7.78;65.48;95366.50;5134139;28;1019;-52
2023/01/12 13:01:14;;;;;;;;;;;;;;;7.99;67.55;95361.03;5116288;28;1028;-52
2023/01/12 13:03:40;;;;;;;;;;;;;;;8.13;66.22;95370.41;5134132;28;1904;-52
2023/01/12 13:06:21;;;;;;;;;;;;;;;8.10;65.80;95368.03;5134381;28;956;-52
2023/01/12 13:08:49;;;;;;;;;;;;;;;8.03;67.71;95367.75;5135816;27;1129;-53
2023/01/12 13:11:16;;;;;;;;;;;;;;;8.06;66.95;95369.28;5138739;27;1003;-52
2023/01/12 13:14:01;;;;;;;;;;;;;;;8.09;65.78;95371.69;5138443;27;1045;-52
2023/01/12 13:16:28;;;;;;;;;;;;;;;7.95;65.15;95373.78;5138264;27;1031;-51
2023/01/12 13:18:54;;;;;;;;;;;;;;;7.86;66.84;95371.13;5138321;27;980;-52
2023/01/12 13:21:26;;;;;;;;;;;;;;;7.93;66.58;95369.56;5138070;27;1062;-52
2023/01/12 13:23:52;;;;;;;;;;;;;;;7.95;67.47;95368.47;5137383;27;1146;-52
2023/01/12 13:26:35;;;;;;;;;;;;;;;7.87;67.69;95370.13;5138346;27;1909;-52
2023/01/12 13:29:19;;;;;;;;;;;;;;;7.75;67.34;95372.09;5138227;27;1060;-53
2023/01/12 13:31:45;;;;;;;;;;;;;;;7.71;67.56;95378.66;5137981;27;999;-52
2023/01/12 13:34:30;;;;;;;;;;;;;;;7.73;67.72;95374.03;5138218;27;1039;-52
2023/01/12 13:37:21;;;;;;;;;;;;;;;7.83;68.08;95374.88;5138060;27;1032;-52
2023/01/12 13:39:54;;;;;;;;;;;;;;;7.81;68.19;95380.34;5137882;27;1998;-52
2023/01/12 13:45:18;;;;;;;;;;;;;;;7.72;67.70;95375.00;5138012;27;1067;-52
2023/01/12 13:47:46;;;;;;;;;;;;;;;7.77;67.19;95375.44;5137885;27;1906;-52
2023/01/12 13:50:17;;;;;;;;;;;;;;;7.80;67.76;95372.50;5119284;27;1277;-52
2023/01/12 13:52:54;;;;;;;;;;;;;;;7.69;68.86;95372.63;5137508;27;1040;-52
2023/01/12 13:55:21;;;;;;;;;;;;;;;7.67;67.05;95374.59;5137508;27;1027;-52
2023/01/12 13:57:54;;;;;;;;;;;;;;;7.61;67.32;95370.66;5137701;27;998;-52
2023/01/12 14:00:22;;;;;;;;;;;;;;;7.63;66.18;95369.53;5137525;27;1055;-52
2023/01/12 14:02:50;;;;;;;;;;;;;;;7.51;67.28;95373.31;5137425;27;1050;-52
2023/01/12 14:05:33;;;;;;;;;;;;;;;7.52;69.49;95364.34;5137318;27;1047;-52